Terminal Aerodrome Forecast
Issued by NWS

Home | Current Version | Previous Version | Graphics & Text | Print | Product List | Glossary On
Versions: 1 2 3 4 5 6 7 8 9 10 11 12 13 14 15
000
FTUS43 KICT 062333
TAFHUT
TAF
KHUT 062333Z 0700/0724 VRB03KT P6SM BKN150
     FM070400 VRB03KT P6SM OVC080
     FM071200 07007KT P6SM -SN VCSH OVC080
     FM071500 05011KT 4SM -SN BR SCT035 OVC040
     FM071800 05013KT P6SM OVC035=

USA.gov is the U.S. government's official web portal to all federal, state and local government web resources and services.